sensor_id;sensor_type;location;lat;lon;timestamp;P1;durP1;ratioP1;P2;durP2;ratioP2
5821;SDS011;2937;48.562;8.022;2022-10-15T00:04:21;1.00;;;0.90;;
5821;SDS011;2937;48.562;8.022;2022-10-15T00:09:14;1.10;;;1.00;;
5821;SDS011;2937;48.562;8.022;2022-10-15T00:14:06;1.07;;;0.97;;
5821;SDS011;2937;48.562;8.022;2022-10-15T00:18:59;1.20;;;1.10;;
5821;SDS011;2937;48.562;8.022;2022-10-15T00:23:53;1.50;;;1.10;;
5821;SDS011;2937;48.562;8.022;2022-10-15T00:28:47;1.30;;;1.20;;
5821;SDS011;2937;48.562;8.022;2022-10-15T00:33:44;2.30;;;1.10;;
5821;SDS011;2937;48.562;8.022;2022-10-15T00:38:37;1.43;;;1.07;;
5821;SDS011;2937;48.562;8.022;2022-10-15T00:43:38;1.87;;;1.10;;
5821;SDS011;2937;48.562;8.022;2022-10-15T00:48:31;1.30;;;1.00;;
5821;SDS011;2937;48.562;8.022;2022-10-15T00:53:24;0.90;;;0.90;;
5821;SDS011;2937;48.562;8.022;2022-10-15T00:58:17;1.13;;;1.03;;
5821;SDS011;2937;48.562;8.022;2022-10-15T01:03:13;1.20;;;1.10;;
5821;SDS011;2937;48.562;8.022;2022-10-15T01:08:06;0.90;;;0.90;;
5821;SDS011;2937;48.562;8.022;2022-10-15T01:13:02;1.20;;;1.10;;
5821;SDS011;2937;48.562;8.022;2022-10-15T01:17:57;1.23;;;1.10;;
5821;SDS011;2937;48.562;8.022;2022-10-15T01:22:55;1.93;;;1.10;;
5821;SDS011;2937;48.562;8.022;2022-10-15T01:27:51;1.73;;;1.50;;
5821;SDS011;2937;48.562;8.022;2022-10-15T01:32:49;2.37;;;1.30;;
5821;SDS011;2937;48.562;8.022;2022-10-15T01:37:45;5.67;;;1.40;;
5821;SDS011;2937;48.562;8.022;2022-10-15T01:42:43;1.63;;;1.33;;
5821;SDS011;2937;48.562;8.022;2022-10-15T01:47:39;1.70;;;1.60;;
5821;SDS011;2937;48.562;8.022;2022-10-15T01:52:35;5.70;;;1.50;;
5821;SDS011;2937;48.562;8.022;2022-10-15T01:57:29;1.80;;;1.70;;
5821;SDS011;2937;48.562;8.022;2022-10-15T02:02:23;2.20;;;1.70;;
5821;SDS011;2937;48.562;8.022;2022-10-15T02:07:18;3.17;;;1.80;;
5821;SDS011;2937;48.562;8.022;2022-10-15T02:12:18;3.20;;;2.47;;
5821;SDS011;2937;48.562;8.022;2022-10-15T02:17:17;2.13;;;1.93;;
5821;SDS011;2937;48.562;8.022;2022-10-15T02:22:12;4.00;;;2.23;;
5821;SDS011;2937;48.562;8.022;2022-10-15T02:27:07;1.97;;;1.87;;
5821;SDS011;2937;48.562;8.022;2022-10-15T02:32:02;2.53;;;1.87;;
5821;SDS011;2937;48.562;8.022;2022-10-15T02:36:56;2.50;;;1.67;;
5821;SDS011;2937;48.562;8.022;2022-10-15T02:41:50;1.60;;;1.50;;
5821;SDS011;2937;48.562;8.022;2022-10-15T02:46:43;1.80;;;1.50;;
5821;SDS011;2937;48.562;8.022;2022-10-15T02:51:39;3.10;;;1.67;;
5821;SDS011;2937;48.562;8.022;2022-10-15T02:56:32;2.23;;;1.50;;
5821;SDS011;2937;48.562;8.022;2022-10-15T03:01:25;1.80;;;1.50;;
5821;SDS011;2937;48.562;8.022;2022-10-15T03:06:18;1.70;;;1.60;;
5821;SDS011;2937;48.562;8.022;2022-10-15T03:11:13;1.80;;;1.57;;
5821;SDS011;2937;48.562;8.022;2022-10-15T03:16:07;2.20;;;1.30;;
5821;SDS011;2937;48.562;8.022;2022-10-15T03:21:01;3.50;;;1.60;;
5821;SDS011;2937;48.562;8.022;2022-10-15T03:25:54;2.67;;;1.57;;
5821;SDS011;2937;48.562;8.022;2022-10-15T03:30:49;2.70;;;1.50;;
5821;SDS011;2937;48.562;8.022;2022-10-15T03:35:42;1.80;;;1.50;;
5821;SDS011;2937;48.562;8.022;2022-10-15T03:40:36;2.03;;;1.30;;
5821;SDS011;2937;48.562;8.022;2022-10-15T03:45:42;1.83;;;1.20;;
5821;SDS011;2937;48.562;8.022;2022-10-15T03:50:43;1.67;;;1.30;;
5821;SDS011;2937;48.562;8.022;2022-10-15T03:55:37;1.20;;;1.10;;
5821;SDS011;2937;48.562;8.022;2022-10-15T04:00:31;2.80;;;1.23;;
5821;SDS011;2937;48.562;8.022;2022-10-15T04:05:26;5.03;;;1.40;;
5821;SDS011;2937;48.562;8.022;2022-10-15T04:10:26;3.20;;;1.53;;
5821;SDS011;2937;48.562;8.022;2022-10-15T04:15:19;2.30;;;1.30;;
5821;SDS011;2937;48.562;8.022;2022-10-15T04:20:20;1.33;;;1.23;;
5821;SDS011;2937;48.562;8.022;2022-10-15T04:25:13;1.87;;;1.20;;
5821;SDS011;2937;48.562;8.022;2022-10-15T04:30:08;1.40;;;1.30;;
5821;SDS011;2937;48.562;8.022;2022-10-15T04:35:05;1.50;;;1.40;;
5821;SDS011;2937;48.562;8.022;2022-10-15T04:40:16;2.60;;;1.10;;
5821;SDS011;2937;48.562;8.022;2022-10-15T04:45:12;1.60;;;1.20;;
5821;SDS011;2937;48.562;8.022;2022-10-15T04:50:05;3.13;;;1.40;;
5821;SDS011;2937;48.562;8.022;2022-10-15T04:55:18;1.50;;;1.30;;
5821;SDS011;2937;48.562;8.022;2022-10-15T05:00:13;2.40;;;1.23;;
5821;SDS011;2937;48.562;8.022;2022-10-15T05:05:06;2.07;;;1.37;;
5821;SDS011;2937;48.562;8.022;2022-10-15T05:10:08;2.73;;;1.10;;
5821;SDS011;2937;48.562;8.022;2022-10-15T05:15:01;2.17;;;1.50;;
5821;SDS011;2937;48.562;8.022;2022-10-15T05:19:55;3.53;;;1.50;;
5821;SDS011;2937;48.562;8.022;2022-10-15T05:24:51;8.93;;;1.63;;
5821;SDS011;2937;48.562;8.022;2022-10-15T05:29:52;3.30;;;1.60;;
5821;SDS011;2937;48.562;8.022;2022-10-15T05:34:50;3.20;;;1.57;;
5821;SDS011;2937;48.562;8.022;2022-10-15T05:39:46;2.00;;;1.50;;
5821;SDS011;2937;48.562;8.022;2022-10-15T05:44:39;1.57;;;1.30;;
5821;SDS011;2937;48.562;8.022;2022-10-15T05:49:32;4.87;;;1.33;;
5821;SDS011;2937;48.562;8.022;2022-10-15T05:54:34;2.70;;;1.60;;
5821;SDS011;2937;48.562;8.022;2022-10-15T05:59:28;1.80;;;1.30;;
5821;SDS011;2937;48.562;8.022;2022-10-15T06:04:20;2.60;;;1.90;;
5821;SDS011;2937;48.562;8.022;2022-10-15T06:09:13;2.30;;;1.30;;
5821;SDS011;2937;48.562;8.022;2022-10-15T06:14:05;2.43;;;1.17;;
5821;SDS011;2937;48.562;8.022;2022-10-15T06:18:59;1.60;;;1.40;;
5821;SDS011;2937;48.562;8.022;2022-10-15T06:23:52;2.00;;;1.60;;
5821;SDS011;2937;48.562;8.022;2022-10-15T06:28:44;1.47;;;1.37;;
5821;SDS011;2937;48.562;8.022;2022-10-15T06:33:37;1.53;;;1.33;;
5821;SDS011;2937;48.562;8.022;2022-10-15T06:38:33;1.43;;;1.33;;
5821;SDS011;2937;48.562;8.022;2022-10-15T06:43:26;1.90;;;1.70;;
5821;SDS011;2937;48.562;8.022;2022-10-15T06:48:23;2.00;;;1.67;;
5821;SDS011;2937;48.562;8.022;2022-10-15T06:53:15;3.50;;;1.60;;
5821;SDS011;2937;48.562;8.022;2022-10-15T06:58:09;2.17;;;1.70;;
5821;SDS011;2937;48.562;8.022;2022-10-15T07:03:02;2.47;;;2.17;;
5821;SDS011;2937;48.562;8.022;2022-10-15T07:07:56;4.17;;;2.30;;
5821;SDS011;2937;48.562;8.022;2022-10-15T07:12:48;2.80;;;1.93;;
5821;SDS011;2937;48.562;8.022;2022-10-15T07:17:46;2.00;;;1.87;;
5821;SDS011;2937;48.562;8.022;2022-10-15T07:22:40;2.00;;;1.67;;
5821;SDS011;2937;48.562;8.022;2022-10-15T07:27:32;1.60;;;1.50;;
5821;SDS011;2937;48.562;8.022;2022-10-15T07:32:25;4.20;;;1.57;;
5821;SDS011;2937;48.562;8.022;2022-10-15T07:37:19;2.03;;;1.33;;
5821;SDS011;2937;48.562;8.022;2022-10-15T07:42:11;3.87;;;1.80;;
5821;SDS011;2937;48.562;8.022;2022-10-15T07:47:05;2.10;;;1.60;;
5821;SDS011;2937;48.562;8.022;2022-10-15T07:51:58;1.90;;;1.50;;
5821;SDS011;2937;48.562;8.022;2022-10-15T07:56:53;2.20;;;1.50;;
5821;SDS011;2937;48.562;8.022;2022-10-15T08:01:46;1.70;;;1.50;;
5821;SDS011;2937;48.562;8.022;2022-10-15T08:06:41;2.30;;;1.47;;
5821;SDS011;2937;48.562;8.022;2022-10-15T08:11:33;1.80;;;1.50;;
5821;SDS011;2937;48.562;8.022;2022-10-15T08:16:27;1.40;;;1.30;;
5821;SDS011;2937;48.562;8.022;2022-10-15T08:21:22;1.77;;;1.30;;
5821;SDS011;2937;48.562;8.022;2022-10-15T08:26:15;1.50;;;1.23;;
5821;SDS011;2937;48.562;8.022;2022-10-15T08:31:08;2.10;;;1.17;;
5821;SDS011;2937;48.562;8.022;2022-10-15T08:36:03;1.83;;;1.73;;
5821;SDS011;2937;48.562;8.022;2022-10-15T08:40:56;2.60;;;2.00;;
5821;SDS011;2937;48.562;8.022;2022-10-15T08:45:50;4.20;;;1.67;;
5821;SDS011;2937;48.562;8.022;2022-10-15T08:50:44;7.17;;;1.60;;
5821;SDS011;2937;48.562;8.022;2022-10-15T08:55:47;3.80;;;1.57;;
5821;SDS011;2937;48.562;8.022;2022-10-15T09:00:41;4.73;;;1.77;;
5821;SDS011;2937;48.562;8.022;2022-10-15T09:05:36;2.03;;;1.60;;
5821;SDS011;2937;48.562;8.022;2022-10-15T09:10:31;4.20;;;1.70;;
5821;SDS011;2937;48.562;8.022;2022-10-15T09:15:28;2.77;;;1.83;;
5821;SDS011;2937;48.562;8.022;2022-10-15T09:20:25;8.30;;;2.30;;
5821;SDS011;2937;48.562;8.022;2022-10-15T09:25:19;3.37;;;2.43;;
5821;SDS011;2937;48.562;8.022;2022-10-15T09:30:17;6.33;;;1.93;;
5821;SDS011;2937;48.562;8.022;2022-10-15T09:35:16;6.03;;;2.13;;
5821;SDS011;2937;48.562;8.022;2022-10-15T09:40:15;3.20;;;1.97;;
5821;SDS011;2937;48.562;8.022;2022-10-15T09:45:12;2.70;;;1.90;;
5821;SDS011;2937;48.562;8.022;2022-10-15T09:50:06;2.43;;;1.93;;
5821;SDS011;2937;48.562;8.022;2022-10-15T09:55:03;2.90;;;1.90;;
5821;SDS011;2937;48.562;8.022;2022-10-15T10:00:01;4.00;;;1.80;;
5821;SDS011;2937;48.562;8.022;2022-10-15T10:05:16;2.00;;;1.80;;
5821;SDS011;2937;48.562;8.022;2022-10-15T10:10:21;1.73;;;1.57;;
5821;SDS011;2937;48.562;8.022;2022-10-15T10:15:25;3.03;;;1.80;;
5821;SDS011;2937;48.562;8.022;2022-10-15T10:20:20;4.80;;;2.13;;
5821;SDS011;2937;48.562;8.022;2022-10-15T10:25:23;2.73;;;2.10;;
5821;SDS011;2937;48.562;8.022;2022-10-15T10:30:19;8.13;;;2.47;;
5821;SDS011;2937;48.562;8.022;2022-10-15T10:35:13;5.17;;;2.00;;
5821;SDS011;2937;48.562;8.022;2022-10-15T10:40:18;2.00;;;1.70;;
5821;SDS011;2937;48.562;8.022;2022-10-15T10:45:16;2.77;;;1.80;;
5821;SDS011;2937;48.562;8.022;2022-10-15T10:50:24;2.83;;;1.50;;
5821;SDS011;2937;48.562;8.022;2022-10-15T10:55:17;2.70;;;1.60;;
5821;SDS011;2937;48.562;8.022;2022-10-15T11:00:12;3.83;;;1.53;;
5821;SDS011;2937;48.562;8.022;2022-10-15T11:05:10;3.50;;;1.80;;
5821;SDS011;2937;48.562;8.022;2022-10-15T11:10:04;3.53;;;1.90;;
5821;SDS011;2937;48.562;8.022;2022-10-15T11:15:00;4.63;;;1.83;;
5821;SDS011;2937;48.562;8.022;2022-10-15T11:19:57;3.10;;;1.83;;
5821;SDS011;2937;48.562;8.022;2022-10-15T11:25:16;2.17;;;1.60;;
5821;SDS011;2937;48.562;8.022;2022-10-15T11:30:17;2.17;;;1.50;;
5821;SDS011;2937;48.562;8.022;2022-10-15T11:35:19;1.60;;;1.50;;
5821;SDS011;2937;48.562;8.022;2022-10-15T11:40:37;2.13;;;1.60;;
5821;SDS011;2937;48.562;8.022;2022-10-15T11:50:46;4.50;;;1.30;;
5821;SDS011;2937;48.562;8.022;2022-10-15T11:55:42;3.13;;;1.67;;
5821;SDS011;2937;48.562;8.022;2022-10-15T12:00:37;2.67;;;1.23;;
5821;SDS011;2937;48.562;8.022;2022-10-15T12:05:32;1.50;;;1.30;;
5821;SDS011;2937;48.562;8.022;2022-10-15T12:10:29;1.50;;;1.30;;
5821;SDS011;2937;48.562;8.022;2022-10-15T12:15:29;12.40;;;7.40;;
5821;SDS011;2937;48.562;8.022;2022-10-15T12:20:23;6.00;;;4.90;;
5821;SDS011;2937;48.562;8.022;2022-10-15T12:30:25;6.77;;;5.90;;
5821;SDS011;2937;48.562;8.022;2022-10-15T12:35:30;2.40;;;2.20;;
5821;SDS011;2937;48.562;8.022;2022-10-15T12:40:26;5.30;;;3.90;;
5821;SDS011;2937;48.562;8.022;2022-10-15T12:45:20;8.00;;;6.70;;
5821;SDS011;2937;48.562;8.022;2022-10-15T12:50:15;2.77;;;2.10;;
5821;SDS011;2937;48.562;8.022;2022-10-15T12:55:20;3.40;;;2.33;;
5821;SDS011;2937;48.562;8.022;2022-10-15T13:00:35;2.40;;;1.80;;
5821;SDS011;2937;48.562;8.022;2022-10-15T13:05:28;2.80;;;2.60;;
5821;SDS011;2937;48.562;8.022;2022-10-15T13:10:23;5.03;;;2.50;;
5821;SDS011;2937;48.562;8.022;2022-10-15T13:15:18;3.10;;;1.80;;
5821;SDS011;2937;48.562;8.022;2022-10-15T13:20:22;1.97;;;1.50;;
5821;SDS011;2937;48.562;8.022;2022-10-15T13:25:18;2.57;;;1.80;;
5821;SDS011;2937;48.562;8.022;2022-10-15T13:30:13;2.87;;;2.40;;
5821;SDS011;2937;48.562;8.022;2022-10-15T13:35:08;2.30;;;1.63;;
5821;SDS011;2937;48.562;8.022;2022-10-15T13:40:01;1.53;;;1.43;;
5821;SDS011;2937;48.562;8.022;2022-10-15T13:44:59;2.10;;;1.90;;
5821;SDS011;2937;48.562;8.022;2022-10-15T13:50:17;1.80;;;1.60;;
5821;SDS011;2937;48.562;8.022;2022-10-15T13:55:13;1.50;;;1.30;;
5821;SDS011;2937;48.562;8.022;2022-10-15T14:00:15;3.50;;;1.40;;
5821;SDS011;2937;48.562;8.022;2022-10-15T14:05:14;2.67;;;1.70;;
5821;SDS011;2937;48.562;8.022;2022-10-15T14:10:09;3.23;;;1.70;;
5821;SDS011;2937;48.562;8.022;2022-10-15T14:20:10;1.80;;;1.57;;
5821;SDS011;2937;48.562;8.022;2022-10-15T14:25:21;4.00;;;1.30;;
5821;SDS011;2937;48.562;8.022;2022-10-15T14:30:19;2.33;;;1.40;;
5821;SDS011;2937;48.562;8.022;2022-10-15T14:35:21;3.07;;;1.60;;
5821;SDS011;2937;48.562;8.022;2022-10-15T14:40:16;2.60;;;1.30;;
5821;SDS011;2937;48.562;8.022;2022-10-15T14:45:10;1.87;;;1.67;;
5821;SDS011;2937;48.562;8.022;2022-10-15T14:50:04;1.67;;;1.57;;
5821;SDS011;2937;48.562;8.022;2022-10-15T14:54:59;2.10;;;1.53;;
5821;SDS011;2937;48.562;8.022;2022-10-15T14:59:52;2.07;;;1.43;;
5821;SDS011;2937;48.562;8.022;2022-10-15T15:04:51;4.50;;;1.50;;
5821;SDS011;2937;48.562;8.022;2022-10-15T15:09:47;2.67;;;1.90;;
5821;SDS011;2937;48.562;8.022;2022-10-15T15:14:40;3.33;;;1.70;;
5821;SDS011;2937;48.562;8.022;2022-10-15T15:19:32;2.10;;;1.63;;
5821;SDS011;2937;48.562;8.022;2022-10-15T15:24:26;2.90;;;2.00;;
5821;SDS011;2937;48.562;8.022;2022-10-15T15:29:19;4.50;;;1.40;;
5821;SDS011;2937;48.562;8.022;2022-10-15T15:34:11;4.03;;;1.70;;
5821;SDS011;2937;48.562;8.022;2022-10-15T15:39:04;2.33;;;1.83;;
5821;SDS011;2937;48.562;8.022;2022-10-15T15:43:58;2.70;;;1.60;;
5821;SDS011;2937;48.562;8.022;2022-10-15T15:48:51;1.90;;;1.60;;
5821;SDS011;2937;48.562;8.022;2022-10-15T15:53:43;3.57;;;3.07;;
5821;SDS011;2937;48.562;8.022;2022-10-15T15:58:36;1.97;;;1.60;;
5821;SDS011;2937;48.562;8.022;2022-10-15T16:03:30;3.60;;;3.20;;
5821;SDS011;2937;48.562;8.022;2022-10-15T16:08:22;2.20;;;2.00;;
5821;SDS011;2937;48.562;8.022;2022-10-15T16:13:15;2.20;;;1.83;;
5821;SDS011;2937;48.562;8.022;2022-10-15T16:18:07;1.97;;;1.80;;
5821;SDS011;2937;48.562;8.022;2022-10-15T16:23:02;3.50;;;2.23;;
5821;SDS011;2937;48.562;8.022;2022-10-15T16:27:55;4.00;;;2.10;;
5821;SDS011;2937;48.562;8.022;2022-10-15T16:32:49;2.80;;;1.77;;
5821;SDS011;2937;48.562;8.022;2022-10-15T16:37:42;4.73;;;2.00;;
5821;SDS011;2937;48.562;8.022;2022-10-15T16:42:36;2.80;;;2.00;;
5821;SDS011;2937;48.562;8.022;2022-10-15T16:47:29;6.20;;;1.60;;
5821;SDS011;2937;48.562;8.022;2022-10-15T16:52:21;2.43;;;1.80;;
5821;SDS011;2937;48.562;8.022;2022-10-15T16:57:14;2.80;;;1.60;;
5821;SDS011;2937;48.562;8.022;2022-10-15T17:02:08;2.00;;;1.40;;
5821;SDS011;2937;48.562;8.022;2022-10-15T17:07:01;2.03;;;1.50;;
5821;SDS011;2937;48.562;8.022;2022-10-15T17:11:54;2.47;;;1.60;;
5821;SDS011;2937;48.562;8.022;2022-10-15T17:16:47;1.90;;;1.60;;
5821;SDS011;2937;48.562;8.022;2022-10-15T17:21:41;1.93;;;1.40;;
5821;SDS011;2937;48.562;8.022;2022-10-15T17:26:37;2.50;;;1.50;;
5821;SDS011;2937;48.562;8.022;2022-10-15T17:31:31;1.80;;;1.50;;
5821;SDS011;2937;48.562;8.022;2022-10-15T17:36:24;7.60;;;1.57;;
5821;SDS011;2937;48.562;8.022;2022-10-15T17:41:20;3.80;;;2.40;;
5821;SDS011;2937;48.562;8.022;2022-10-15T17:46:14;1.93;;;1.70;;
5821;SDS011;2937;48.562;8.022;2022-10-15T17:51:08;2.03;;;1.70;;
5821;SDS011;2937;48.562;8.022;2022-10-15T17:56:07;2.30;;;2.10;;
5821;SDS011;2937;48.562;8.022;2022-10-15T18:01:02;2.63;;;1.90;;
5821;SDS011;2937;48.562;8.022;2022-10-15T18:06:04;3.00;;;1.90;;
5821;SDS011;2937;48.562;8.022;2022-10-15T18:10:56;2.40;;;1.80;;
5821;SDS011;2937;48.562;8.022;2022-10-15T18:15:53;2.30;;;1.90;;
5821;SDS011;2937;48.562;8.022;2022-10-15T18:20:47;3.17;;;1.67;;
5821;SDS011;2937;48.562;8.022;2022-10-15T18:25:39;2.17;;;1.57;;
5821;SDS011;2937;48.562;8.022;2022-10-15T18:30:33;3.43;;;1.77;;
5821;SDS011;2937;48.562;8.022;2022-10-15T18:35:28;3.40;;;1.70;;
5821;SDS011;2937;48.562;8.022;2022-10-15T18:40:22;2.70;;;1.70;;
5821;SDS011;2937;48.562;8.022;2022-10-15T18:45:15;4.07;;;1.57;;
5821;SDS011;2937;48.562;8.022;2022-10-15T18:50:07;3.37;;;1.60;;
5821;SDS011;2937;48.562;8.022;2022-10-15T18:55:03;6.87;;;1.50;;
5821;SDS011;2937;48.562;8.022;2022-10-15T18:59:58;2.50;;;1.90;;
5821;SDS011;2937;48.562;8.022;2022-10-15T19:04:51;1.73;;;1.63;;
5821;SDS011;2937;48.562;8.022;2022-10-15T19:09:43;7.23;;;1.70;;
5821;SDS011;2937;48.562;8.022;2022-10-15T19:14:36;1.80;;;1.70;;
5821;SDS011;2937;48.562;8.022;2022-10-15T19:19:32;2.43;;;1.90;;
5821;SDS011;2937;48.562;8.022;2022-10-15T19:24:24;7.73;;;1.87;;
5821;SDS011;2937;48.562;8.022;2022-10-15T19:29:17;1.87;;;1.77;;
5821;SDS011;2937;48.562;8.022;2022-10-15T19:34:11;7.20;;;1.90;;
5821;SDS011;2937;48.562;8.022;2022-10-15T19:39:06;3.37;;;1.93;;
5821;SDS011;2937;48.562;8.022;2022-10-15T19:44:00;6.37;;;2.53;;
5821;SDS011;2937;48.562;8.022;2022-10-15T19:48:53;2.27;;;2.07;;
5821;SDS011;2937;48.562;8.022;2022-10-15T19:53:49;3.83;;;2.07;;
5821;SDS011;2937;48.562;8.022;2022-10-15T19:58:42;7.77;;;2.30;;
5821;SDS011;2937;48.562;8.022;2022-10-15T20:03:35;3.07;;;1.97;;
5821;SDS011;2937;48.562;8.022;2022-10-15T20:08:29;5.47;;;2.30;;
5821;SDS011;2937;48.562;8.022;2022-10-15T20:13:21;3.80;;;2.10;;
5821;SDS011;2937;48.562;8.022;2022-10-15T20:18:15;3.57;;;2.00;;
5821;SDS011;2937;48.562;8.022;2022-10-15T20:23:08;4.80;;;2.20;;
5821;SDS011;2937;48.562;8.022;2022-10-15T20:28:02;2.53;;;2.10;;
5821;SDS011;2937;48.562;8.022;2022-10-15T20:32:54;2.33;;;2.03;;
5821;SDS011;2937;48.562;8.022;2022-10-15T20:37:48;7.07;;;1.73;;
5821;SDS011;2937;48.562;8.022;2022-10-15T20:42:41;1.70;;;1.60;;
5821;SDS011;2937;48.562;8.022;2022-10-15T20:47:33;2.00;;;1.90;;
5821;SDS011;2937;48.562;8.022;2022-10-15T20:52:26;3.50;;;2.50;;
5821;SDS011;2937;48.562;8.022;2022-10-15T20:57:21;8.10;;;3.67;;
5821;SDS011;2937;48.562;8.022;2022-10-15T21:02:13;5.30;;;3.50;;
5821;SDS011;2937;48.562;8.022;2022-10-15T21:07:06;2.63;;;2.43;;
5821;SDS011;2937;48.562;8.022;2022-10-15T21:11:58;4.70;;;2.30;;
5821;SDS011;2937;48.562;8.022;2022-10-15T21:16:53;2.47;;;2.00;;
5821;SDS011;2937;48.562;8.022;2022-10-15T21:21:45;4.53;;;1.83;;
5821;SDS011;2937;48.562;8.022;2022-10-15T21:26:38;3.20;;;2.30;;
5821;SDS011;2937;48.562;8.022;2022-10-15T21:31:30;3.20;;;2.20;;
5821;SDS011;2937;48.562;8.022;2022-10-15T21:36:25;2.57;;;2.37;;
5821;SDS011;2937;48.562;8.022;2022-10-15T21:41:18;4.07;;;3.30;;
5821;SDS011;2937;48.562;8.022;2022-10-15T21:46:11;4.70;;;2.93;;
5821;SDS011;2937;48.562;8.022;2022-10-15T21:51:03;6.00;;;2.60;;
5821;SDS011;2937;48.562;8.022;2022-10-15T21:55:57;6.47;;;2.50;;
5821;SDS011;2937;48.562;8.022;2022-10-15T22:00:50;3.27;;;2.20;;
5821;SDS011;2937;48.562;8.022;2022-10-15T22:05:43;4.47;;;2.30;;
5821;SDS011;2937;48.562;8.022;2022-10-15T22:10:35;4.13;;;2.97;;
5821;SDS011;2937;48.562;8.022;2022-10-15T22:15:30;8.43;;;2.87;;
5821;SDS011;2937;48.562;8.022;2022-10-15T22:20:23;7.37;;;3.10;;
5821;SDS011;2937;48.562;8.022;2022-10-15T22:25:16;3.33;;;2.10;;
5821;SDS011;2937;48.562;8.022;2022-10-15T22:30:09;5.50;;;1.90;;
5821;SDS011;2937;48.562;8.022;2022-10-15T22:35:03;1.80;;;1.63;;
5821;SDS011;2937;48.562;8.022;2022-10-15T22:39:55;5.07;;;2.10;;
5821;SDS011;2937;48.562;8.022;2022-10-15T22:44:48;3.03;;;2.30;;
5821;SDS011;2937;48.562;8.022;2022-10-15T22:49:40;4.20;;;2.20;;
5821;SDS011;2937;48.562;8.022;2022-10-15T22:54:34;3.80;;;2.33;;
5821;SDS011;2937;48.562;8.022;2022-10-15T22:59:27;6.40;;;2.40;;
5821;SDS011;2937;48.562;8.022;2022-10-15T23:04:19;5.43;;;2.23;;
5821;SDS011;2937;48.562;8.022;2022-10-15T23:09:12;8.70;;;2.10;;
5821;SDS011;2937;48.562;8.022;2022-10-15T23:14:10;2.50;;;2.10;;
5821;SDS011;2937;48.562;8.022;2022-10-15T23:19:04;2.03;;;1.80;;
5821;SDS011;2937;48.562;8.022;2022-10-15T23:23:57;4.10;;;2.50;;
5821;SDS011;2937;48.562;8.022;2022-10-15T23:28:50;4.10;;;3.10;;
5821;SDS011;2937;48.562;8.022;2022-10-15T23:33:45;7.40;;;4.10;;
5821;SDS011;2937;48.562;8.022;2022-10-15T23:38:37;8.40;;;4.30;;
5821;SDS011;2937;48.562;8.022;2022-10-15T23:43:30;7.67;;;3.67;;
5821;SDS011;2937;48.562;8.022;2022-10-15T23:48:22;4.37;;;3.13;;
5821;SDS011;2937;48.562;8.022;2022-10-15T23:53:16;5.70;;;2.80;;
5821;SDS011;2937;48.562;8.022;2022-10-15T23:58:09;6.90;;;2.93;;
